sensor_id;sensor_type;location;lat;lon;timestamp;P1;durP1;ratioP1;P2;durP2;ratioP2
66012;SDS011;52783;50.502;8.190;2023-01-25T00:01:50;19.15;;;10.48;;
66012;SDS011;52783;50.502;8.190;2023-01-25T00:04:20;20.35;;;9.65;;
66012;SDS011;52783;50.502;8.190;2023-01-25T00:06:46;20.70;;;9.98;;
66012;SDS011;52783;50.502;8.190;2023-01-25T00:09:13;15.98;;;9.32;;
66012;SDS011;52783;50.502;8.190;2023-01-25T00:11:39;16.30;;;9.90;;
66012;SDS011;52783;50.502;8.190;2023-01-25T00:14:06;18.00;;;10.32;;
66012;SDS011;52783;50.502;8.190;2023-01-25T00:16:38;13.83;;;8.77;;
66012;SDS011;52783;50.502;8.190;2023-01-25T00:19:04;16.10;;;8.82;;
66012;SDS011;52783;50.502;8.190;2023-01-25T00:21:30;19.50;;;11.10;;
66012;SDS011;52783;50.502;8.190;2023-01-25T00:23:58;19.45;;;10.02;;
66012;SDS011;52783;50.502;8.190;2023-01-25T00:26:23;18.60;;;10.20;;
66012;SDS011;52783;50.502;8.190;2023-01-25T00:28:49;18.55;;;10.18;;
66012;SDS011;52783;50.502;8.190;2023-01-25T00:34:00;18.25;;;9.77;;
66012;SDS011;52783;50.502;8.190;2023-01-25T00:36:55;17.42;;;9.95;;
66012;SDS011;52783;50.502;8.190;2023-01-25T00:39:21;18.10;;;9.45;;
66012;SDS011;52783;50.502;8.190;2023-01-25T00:41:47;20.98;;;11.02;;
66012;SDS011;52783;50.502;8.190;2023-01-25T00:44:13;19.15;;;10.45;;
66012;SDS011;52783;50.502;8.190;2023-01-25T00:46:38;19.95;;;9.73;;
66012;SDS011;52783;50.502;8.190;2023-01-25T00:49:04;20.80;;;10.70;;
66012;SDS011;52783;50.502;8.190;2023-01-25T00:51:30;19.77;;;10.48;;
66012;SDS011;52783;50.502;8.190;2023-01-25T00:53:55;18.83;;;11.02;;
66012;SDS011;52783;50.502;8.190;2023-01-25T00:56:21;18.52;;;10.75;;
66012;SDS011;52783;50.502;8.190;2023-01-25T00:58:46;23.85;;;11.85;;
66012;SDS011;52783;50.502;8.190;2023-01-25T01:01:12;21.63;;;11.95;;
66012;SDS011;52783;50.502;8.190;2023-01-25T01:03:37;19.05;;;10.00;;
66012;SDS011;52783;50.502;8.190;2023-01-25T01:06:05;19.58;;;10.10;;
66012;SDS011;52783;50.502;8.190;2023-01-25T01:08:33;20.10;;;11.23;;
66012;SDS011;52783;50.502;8.190;2023-01-25T01:11:01;20.15;;;9.95;;
66012;SDS011;52783;50.502;8.190;2023-01-25T01:13:29;23.88;;;12.05;;
66012;SDS011;52783;50.502;8.190;2023-01-25T01:15:55;23.65;;;10.82;;
66012;SDS011;52783;50.502;8.190;2023-01-25T01:18:21;23.45;;;12.02;;
66012;SDS011;52783;50.502;8.190;2023-01-25T01:20:47;25.67;;;12.02;;
66012;SDS011;52783;50.502;8.190;2023-01-25T01:23:17;23.80;;;11.20;;
66012;SDS011;52783;50.502;8.190;2023-01-25T01:25:43;23.70;;;12.90;;
66012;SDS011;52783;50.502;8.190;2023-01-25T01:28:08;25.20;;;12.77;;
66012;SDS011;52783;50.502;8.190;2023-01-25T01:30:34;19.23;;;11.27;;
66012;SDS011;52783;50.502;8.190;2023-01-25T01:33:01;20.73;;;11.85;;
66012;SDS011;52783;50.502;8.190;2023-01-25T01:35:27;24.38;;;12.35;;
66012;SDS011;52783;50.502;8.190;2023-01-25T01:37:53;22.13;;;11.35;;
66012;SDS011;52783;50.502;8.190;2023-01-25T01:40:19;20.20;;;11.75;;
66012;SDS011;52783;50.502;8.190;2023-01-25T01:42:54;21.70;;;11.13;;
66012;SDS011;52783;50.502;8.190;2023-01-25T01:48:10;23.13;;;11.60;;
66012;SDS011;52783;50.502;8.190;2023-01-25T01:53:05;22.27;;;11.68;;
66012;SDS011;52783;50.502;8.190;2023-01-25T01:55:31;24.20;;;12.48;;
66012;SDS011;52783;50.502;8.190;2023-01-25T01:57:57;23.42;;;12.27;;
66012;SDS011;52783;50.502;8.190;2023-01-25T02:00:24;29.48;;;13.52;;
66012;SDS011;52783;50.502;8.190;2023-01-25T02:02:54;25.98;;;12.50;;
66012;SDS011;52783;50.502;8.190;2023-01-25T02:07:52;22.92;;;11.30;;
66012;SDS011;52783;50.502;8.190;2023-01-25T02:10:19;26.83;;;12.20;;
66012;SDS011;52783;50.502;8.190;2023-01-25T02:12:46;24.05;;;12.18;;
66012;SDS011;52783;50.502;8.190;2023-01-25T02:15:12;22.33;;;10.65;;
66012;SDS011;52783;50.502;8.190;2023-01-25T02:17:38;23.35;;;12.55;;
66012;SDS011;52783;50.502;8.190;2023-01-25T02:20:13;26.63;;;12.07;;
66012;SDS011;52783;50.502;8.190;2023-01-25T02:22:51;22.35;;;12.15;;
66012;SDS011;52783;50.502;8.190;2023-01-25T02:25:24;23.02;;;12.70;;
66012;SDS011;52783;50.502;8.190;2023-01-25T02:27:52;30.08;;;14.20;;
66012;SDS011;52783;50.502;8.190;2023-01-25T02:30:20;21.17;;;12.30;;
66012;SDS011;52783;50.502;8.190;2023-01-25T02:32:47;24.70;;;11.88;;
66012;SDS011;52783;50.502;8.190;2023-01-25T02:35:20;32.85;;;14.07;;
66012;SDS011;52783;50.502;8.190;2023-01-25T02:37:47;45.55;;;14.00;;
66012;SDS011;52783;50.502;8.190;2023-01-25T02:40:13;58.15;;;16.40;;
66012;SDS011;52783;50.502;8.190;2023-01-25T02:42:42;36.53;;;12.18;;
66012;SDS011;52783;50.502;8.190;2023-01-25T02:45:09;26.23;;;13.32;;
66012;SDS011;52783;50.502;8.190;2023-01-25T02:47:39;31.98;;;13.13;;
66012;SDS011;52783;50.502;8.190;2023-01-25T02:50:05;28.48;;;13.80;;
66012;SDS011;52783;50.502;8.190;2023-01-25T02:52:31;28.60;;;12.82;;
66012;SDS011;52783;50.502;8.190;2023-01-25T02:54:56;29.02;;;13.80;;
66012;SDS011;52783;50.502;8.190;2023-01-25T02:57:22;34.25;;;13.27;;
66012;SDS011;52783;50.502;8.190;2023-01-25T02:59:47;38.00;;;13.82;;
66012;SDS011;52783;50.502;8.190;2023-01-25T03:02:13;27.85;;;13.05;;
66012;SDS011;52783;50.502;8.190;2023-01-25T03:04:38;29.02;;;12.40;;
66012;SDS011;52783;50.502;8.190;2023-01-25T03:07:04;28.05;;;12.20;;
66012;SDS011;52783;50.502;8.190;2023-01-25T03:09:30;51.63;;;15.20;;
66012;SDS011;52783;50.502;8.190;2023-01-25T03:11:56;30.00;;;14.27;;
66012;SDS011;52783;50.502;8.190;2023-01-25T03:14:21;42.15;;;14.65;;
66012;SDS011;52783;50.502;8.190;2023-01-25T03:16:47;26.00;;;12.07;;
66012;SDS011;52783;50.502;8.190;2023-01-25T03:19:12;31.63;;;13.57;;
66012;SDS011;52783;50.502;8.190;2023-01-25T03:21:39;32.70;;;12.30;;
66012;SDS011;52783;50.502;8.190;2023-01-25T03:24:05;29.27;;;12.55;;
66012;SDS011;52783;50.502;8.190;2023-01-25T03:26:30;29.23;;;12.35;;
66012;SDS011;52783;50.502;8.190;2023-01-25T03:29:16;25.30;;;12.32;;
66012;SDS011;52783;50.502;8.190;2023-01-25T03:31:41;28.77;;;12.88;;
66012;SDS011;52783;50.502;8.190;2023-01-25T03:34:07;36.67;;;14.48;;
66012;SDS011;52783;50.502;8.190;2023-01-25T03:36:32;39.63;;;14.10;;
66012;SDS011;52783;50.502;8.190;2023-01-25T03:38:58;45.25;;;13.90;;
66012;SDS011;52783;50.502;8.190;2023-01-25T03:41:23;28.38;;;14.52;;
66012;SDS011;52783;50.502;8.190;2023-01-25T03:43:49;47.28;;;14.68;;
66012;SDS011;52783;50.502;8.190;2023-01-25T03:46:15;32.95;;;13.32;;
66012;SDS011;52783;50.502;8.190;2023-01-25T03:48:40;102.47;;;14.52;;
66012;SDS011;52783;50.502;8.190;2023-01-25T03:51:06;52.75;;;14.10;;
66012;SDS011;52783;50.502;8.190;2023-01-25T03:53:31;37.67;;;12.82;;
66012;SDS011;52783;50.502;8.190;2023-01-25T03:56:07;34.47;;;12.40;;
66012;SDS011;52783;50.502;8.190;2023-01-25T03:58:37;63.45;;;14.90;;
66012;SDS011;52783;50.502;8.190;2023-01-25T04:01:04;47.28;;;14.45;;
66012;SDS011;52783;50.502;8.190;2023-01-25T04:03:31;60.42;;;15.05;;
66012;SDS011;52783;50.502;8.190;2023-01-25T04:05:57;83.97;;;15.45;;
66012;SDS011;52783;50.502;8.190;2023-01-25T04:08:23;58.13;;;15.02;;
66012;SDS011;52783;50.502;8.190;2023-01-25T04:10:50;54.33;;;15.57;;
66012;SDS011;52783;50.502;8.190;2023-01-25T04:13:17;48.88;;;14.15;;
66012;SDS011;52783;50.502;8.190;2023-01-25T04:15:44;61.15;;;16.15;;
66012;SDS011;52783;50.502;8.190;2023-01-25T04:18:09;88.25;;;14.93;;
66012;SDS011;52783;50.502;8.190;2023-01-25T04:20:35;58.72;;;14.50;;
66012;SDS011;52783;50.502;8.190;2023-01-25T04:23:00;54.83;;;13.75;;
66012;SDS011;52783;50.502;8.190;2023-01-25T04:25:26;53.60;;;11.93;;
66012;SDS011;52783;50.502;8.190;2023-01-25T04:27:52;53.42;;;14.30;;
66012;SDS011;52783;50.502;8.190;2023-01-25T04:30:18;85.13;;;14.82;;
66012;SDS011;52783;50.502;8.190;2023-01-25T04:32:44;62.65;;;13.73;;
66012;SDS011;52783;50.502;8.190;2023-01-25T04:35:11;46.85;;;13.55;;
66012;SDS011;52783;50.502;8.190;2023-01-25T04:37:36;132.15;;;13.80;;
66012;SDS011;52783;50.502;8.190;2023-01-25T04:40:02;207.85;;;14.85;;
66012;SDS011;52783;50.502;8.190;2023-01-25T04:42:28;57.05;;;12.43;;
66012;SDS011;52783;50.502;8.190;2023-01-25T04:44:54;108.35;;;13.98;;
66012;SDS011;52783;50.502;8.190;2023-01-25T04:47:20;140.52;;;14.82;;
66012;SDS011;52783;50.502;8.190;2023-01-25T04:49:46;318.08;;;15.60;;
66012;SDS011;52783;50.502;8.190;2023-01-25T04:52:12;223.30;;;15.75;;
66012;SDS011;52783;50.502;8.190;2023-01-25T04:54:37;168.85;;;15.60;;
66012;SDS011;52783;50.502;8.190;2023-01-25T04:57:03;238.35;;;16.50;;
66012;SDS011;52783;50.502;8.190;2023-01-25T04:59:28;167.38;;;15.77;;
66012;SDS011;52783;50.502;8.190;2023-01-25T05:01:54;375.92;;;18.83;;
66012;SDS011;52783;50.502;8.190;2023-01-25T05:04:19;141.10;;;15.25;;
66012;SDS011;52783;50.502;8.190;2023-01-25T05:06:45;300.33;;;18.10;;
66012;SDS011;52783;50.502;8.190;2023-01-25T05:09:10;255.98;;;16.55;;
66012;SDS011;52783;50.502;8.190;2023-01-25T05:11:36;180.32;;;15.55;;
66012;SDS011;52783;50.502;8.190;2023-01-25T05:14:02;225.43;;;16.65;;
66012;SDS011;52783;50.502;8.190;2023-01-25T05:16:27;62.13;;;13.63;;
66012;SDS011;52783;50.502;8.190;2023-01-25T05:18:53;41.67;;;13.38;;
66012;SDS011;52783;50.502;8.190;2023-01-25T05:21:19;49.65;;;14.43;;
66012;SDS011;52783;50.502;8.190;2023-01-25T05:24:03;118.93;;;13.68;;
66012;SDS011;52783;50.502;8.190;2023-01-25T05:26:29;199.15;;;15.32;;
66012;SDS011;52783;50.502;8.190;2023-01-25T05:29:13;87.03;;;13.48;;
66012;SDS011;52783;50.502;8.190;2023-01-25T05:31:39;62.42;;;13.68;;
66012;SDS011;52783;50.502;8.190;2023-01-25T05:34:04;187.77;;;16.10;;
66012;SDS011;52783;50.502;8.190;2023-01-25T05:36:31;156.25;;;15.60;;
66012;SDS011;52783;50.502;8.190;2023-01-25T05:38:56;198.77;;;15.23;;
66012;SDS011;52783;50.502;8.190;2023-01-25T05:41:22;183.90;;;15.57;;
66012;SDS011;52783;50.502;8.190;2023-01-25T05:43:47;139.73;;;14.85;;
66012;SDS011;52783;50.502;8.190;2023-01-25T05:46:13;84.03;;;15.25;;
66012;SDS011;52783;50.502;8.190;2023-01-25T05:48:39;112.78;;;14.13;;
66012;SDS011;52783;50.502;8.190;2023-01-25T05:51:04;196.38;;;14.40;;
66012;SDS011;52783;50.502;8.190;2023-01-25T05:53:30;155.85;;;13.02;;
66012;SDS011;52783;50.502;8.190;2023-01-25T05:56:02;156.88;;;14.27;;
66012;SDS011;52783;50.502;8.190;2023-01-25T05:58:29;263.33;;;16.67;;
66012;SDS011;52783;50.502;8.190;2023-01-25T06:00:54;188.35;;;13.60;;
66012;SDS011;52783;50.502;8.190;2023-01-25T06:03:20;66.43;;;12.07;;
66012;SDS011;52783;50.502;8.190;2023-01-25T06:05:45;55.10;;;12.70;;
66012;SDS011;52783;50.502;8.190;2023-01-25T06:08:11;297.38;;;16.13;;
66012;SDS011;52783;50.502;8.190;2023-01-25T06:10:36;197.13;;;13.70;;
66012;SDS011;52783;50.502;8.190;2023-01-25T06:13:02;175.27;;;13.80;;
66012;SDS011;52783;50.502;8.190;2023-01-25T06:15:29;125.13;;;14.50;;
66012;SDS011;52783;50.502;8.190;2023-01-25T06:17:55;238.45;;;16.40;;
66012;SDS011;52783;50.502;8.190;2023-01-25T06:20:20;192.38;;;14.77;;
66012;SDS011;52783;50.502;8.190;2023-01-25T06:22:49;106.32;;;12.43;;
66012;SDS011;52783;50.502;8.190;2023-01-25T06:25:16;240.60;;;13.90;;
66012;SDS011;52783;50.502;8.190;2023-01-25T06:27:42;277.95;;;15.55;;
66012;SDS011;52783;50.502;8.190;2023-01-25T06:30:08;88.07;;;12.48;;
66012;SDS011;52783;50.502;8.190;2023-01-25T06:32:34;234.40;;;13.75;;
66012;SDS011;52783;50.502;8.190;2023-01-25T06:34:59;345.02;;;16.20;;
66012;SDS011;52783;50.502;8.190;2023-01-25T06:37:25;350.45;;;15.32;;
66012;SDS011;52783;50.502;8.190;2023-01-25T06:39:50;392.10;;;18.98;;
66012;SDS011;52783;50.502;8.190;2023-01-25T06:42:17;505.58;;;18.75;;
66012;SDS011;52783;50.502;8.190;2023-01-25T06:44:42;361.00;;;17.30;;
66012;SDS011;52783;50.502;8.190;2023-01-25T06:47:08;360.38;;;16.90;;
66012;SDS011;52783;50.502;8.190;2023-01-25T06:49:34;96.97;;;6.75;;
66012;SDS011;52783;50.502;8.190;2023-01-25T06:52:00;322.85;;;16.48;;
66012;SDS011;52783;50.502;8.190;2023-01-25T06:54:26;270.05;;;15.18;;
66012;SDS011;52783;50.502;8.190;2023-01-25T06:56:52;240.85;;;15.82;;
66012;SDS011;52783;50.502;8.190;2023-01-25T06:59:17;203.23;;;16.85;;
66012;SDS011;52783;50.502;8.190;2023-01-25T07:01:43;161.88;;;13.88;;
66012;SDS011;52783;50.502;8.190;2023-01-25T07:04:09;109.18;;;13.95;;
66012;SDS011;52783;50.502;8.190;2023-01-25T07:06:38;582.22;;;25.08;;
66012;SDS011;52783;50.502;8.190;2023-01-25T07:09:05;349.75;;;13.85;;
66012;SDS011;52783;50.502;8.190;2023-01-25T07:11:32;344.05;;;15.15;;
66012;SDS011;52783;50.502;8.190;2023-01-25T07:13:57;212.50;;;11.73;;
66012;SDS011;52783;50.502;8.190;2023-01-25T07:16:24;160.30;;;13.32;;
66012;SDS011;52783;50.502;8.190;2023-01-25T07:18:49;220.40;;;13.40;;
66012;SDS011;52783;50.502;8.190;2023-01-25T07:21:19;108.40;;;13.52;;
66012;SDS011;52783;50.502;8.190;2023-01-25T07:23:46;168.30;;;11.90;;
66012;SDS011;52783;50.502;8.190;2023-01-25T07:26:17;147.95;;;15.02;;
66012;SDS011;52783;50.502;8.190;2023-01-25T07:28:47;202.02;;;9.52;;
66012;SDS011;52783;50.502;8.190;2023-01-25T07:31:14;385.63;;;16.50;;
66012;SDS011;52783;50.502;8.190;2023-01-25T07:33:40;271.23;;;14.10;;
66012;SDS011;52783;50.502;8.190;2023-01-25T07:36:07;389.15;;;19.00;;
66012;SDS011;52783;50.502;8.190;2023-01-25T07:38:34;250.45;;;14.50;;
66012;SDS011;52783;50.502;8.190;2023-01-25T07:41:00;247.90;;;14.52;;
66012;SDS011;52783;50.502;8.190;2023-01-25T07:43:26;164.60;;;14.85;;
66012;SDS011;52783;50.502;8.190;2023-01-25T07:45:53;411.25;;;16.50;;
66012;SDS011;52783;50.502;8.190;2023-01-25T07:48:25;173.23;;;14.77;;
66012;SDS011;52783;50.502;8.190;2023-01-25T07:50:50;251.13;;;15.68;;
66012;SDS011;52783;50.502;8.190;2023-01-25T07:53:35;267.48;;;15.27;;
66012;SDS011;52783;50.502;8.190;2023-01-25T07:56:05;129.60;;;9.80;;
66012;SDS011;52783;50.502;8.190;2023-01-25T07:58:30;190.88;;;9.30;;
66012;SDS011;52783;50.502;8.190;2023-01-25T08:00:56;220.63;;;12.38;;
66012;SDS011;52783;50.502;8.190;2023-01-25T08:03:22;162.30;;;13.05;;
66012;SDS011;52783;50.502;8.190;2023-01-25T08:05:47;174.00;;;11.10;;
66012;SDS011;52783;50.502;8.190;2023-01-25T08:08:13;88.13;;;13.80;;
66012;SDS011;52783;50.502;8.190;2023-01-25T08:10:39;112.43;;;14.57;;
66012;SDS011;52783;50.502;8.190;2023-01-25T08:13:05;143.35;;;13.00;;
66012;SDS011;52783;50.502;8.190;2023-01-25T08:15:30;87.43;;;10.60;;
66012;SDS011;52783;50.502;8.190;2023-01-25T08:17:59;163.55;;;12.52;;
66012;SDS011;52783;50.502;8.190;2023-01-25T08:20:25;152.10;;;11.93;;
66012;SDS011;52783;50.502;8.190;2023-01-25T08:22:51;202.70;;;13.40;;
66012;SDS011;52783;50.502;8.190;2023-01-25T08:25:16;264.88;;;12.88;;
66012;SDS011;52783;50.502;8.190;2023-01-25T08:27:42;254.90;;;14.07;;
66012;SDS011;52783;50.502;8.190;2023-01-25T08:30:08;145.13;;;11.73;;
66012;SDS011;52783;50.502;8.190;2023-01-25T08:32:36;227.25;;;15.07;;
66012;SDS011;52783;50.502;8.190;2023-01-25T08:35:01;131.18;;;13.13;;
66012;SDS011;52783;50.502;8.190;2023-01-25T08:37:27;219.48;;;14.52;;
66012;SDS011;52783;50.502;8.190;2023-01-25T08:39:53;183.57;;;13.75;;
66012;SDS011;52783;50.502;8.190;2023-01-25T08:42:23;74.10;;;12.82;;
66012;SDS011;52783;50.502;8.190;2023-01-25T08:44:49;303.38;;;16.77;;
66012;SDS011;52783;50.502;8.190;2023-01-25T08:47:15;229.10;;;12.68;;
66012;SDS011;52783;50.502;8.190;2023-01-25T08:49:40;194.18;;;14.82;;
66012;SDS011;52783;50.502;8.190;2023-01-25T08:52:06;211.15;;;15.10;;
66012;SDS011;52783;50.502;8.190;2023-01-25T08:54:31;257.77;;;14.52;;
66012;SDS011;52783;50.502;8.190;2023-01-25T08:56:57;228.82;;;13.23;;
66012;SDS011;52783;50.502;8.190;2023-01-25T08:59:22;103.75;;;13.25;;
66012;SDS011;52783;50.502;8.190;2023-01-25T09:01:48;110.43;;;13.88;;
66012;SDS011;52783;50.502;8.190;2023-01-25T09:04:14;51.13;;;13.48;;
66012;SDS011;52783;50.502;8.190;2023-01-25T09:06:39;117.82;;;13.10;;
66012;SDS011;52783;50.502;8.190;2023-01-25T09:09:05;324.77;;;17.63;;
66012;SDS011;52783;50.502;8.190;2023-01-25T09:11:32;147.65;;;13.70;;
66012;SDS011;52783;50.502;8.190;2023-01-25T09:13:58;175.50;;;12.30;;
66012;SDS011;52783;50.502;8.190;2023-01-25T09:16:24;162.70;;;14.27;;
66012;SDS011;52783;50.502;8.190;2023-01-25T09:18:53;251.77;;;13.95;;
66012;SDS011;52783;50.502;8.190;2023-01-25T09:21:20;120.13;;;12.10;;
66012;SDS011;52783;50.502;8.190;2023-01-25T09:23:47;212.38;;;11.70;;
66012;SDS011;52783;50.502;8.190;2023-01-25T09:26:14;192.93;;;11.95;;
66012;SDS011;52783;50.502;8.190;2023-01-25T09:28:41;279.50;;;12.82;;
66012;SDS011;52783;50.502;8.190;2023-01-25T09:31:10;148.60;;;12.35;;
66012;SDS011;52783;50.502;8.190;2023-01-25T09:33:36;70.72;;;11.35;;
66012;SDS011;52783;50.502;8.190;2023-01-25T09:36:03;104.03;;;11.88;;
66012;SDS011;52783;50.502;8.190;2023-01-25T09:38:30;108.80;;;11.07;;
66012;SDS011;52783;50.502;8.190;2023-01-25T09:41:13;107.20;;;11.48;;
66012;SDS011;52783;50.502;8.190;2023-01-25T09:44:14;92.78;;;11.02;;
66012;SDS011;52783;50.502;8.190;2023-01-25T09:46:47;72.70;;;10.73;;
66012;SDS011;52783;50.502;8.190;2023-01-25T09:54:56;68.18;;;10.77;;
66012;SDS011;52783;50.502;8.190;2023-01-25T09:57:27;29.13;;;9.57;;
66012;SDS011;52783;50.502;8.190;2023-01-25T09:59:56;59.58;;;10.60;;
66012;SDS011;52783;50.502;8.190;2023-01-25T10:02:33;79.30;;;10.43;;
66012;SDS011;52783;50.502;8.190;2023-01-25T10:05:21;88.38;;;10.73;;
66012;SDS011;52783;50.502;8.190;2023-01-25T10:10:33;62.85;;;10.05;;
66012;SDS011;52783;50.502;8.190;2023-01-25T10:13:01;31.20;;;9.18;;
66012;SDS011;52783;50.502;8.190;2023-01-25T10:15:33;40.03;;;10.18;;
66012;SDS011;52783;50.502;8.190;2023-01-25T10:18:16;47.50;;;9.18;;
66012;SDS011;52783;50.502;8.190;2023-01-25T10:20:54;52.47;;;8.40;;
66012;SDS011;52783;50.502;8.190;2023-01-25T10:25:53;22.40;;;6.03;;
66012;SDS011;52783;50.502;8.190;2023-01-25T10:28:56;33.42;;;5.90;;
66012;SDS011;52783;50.502;8.190;2023-01-25T10:31:43;58.85;;;8.98;;
66012;SDS011;52783;50.502;8.190;2023-01-25T10:34:20;77.75;;;9.70;;
66012;SDS011;52783;50.502;8.190;2023-01-25T10:36:55;77.40;;;10.07;;
66012;SDS011;52783;50.502;8.190;2023-01-25T10:39:25;54.22;;;10.00;;
66012;SDS011;52783;50.502;8.190;2023-01-25T10:41:57;44.42;;;9.80;;
66012;SDS011;52783;50.502;8.190;2023-01-25T10:44:25;31.50;;;9.55;;
66012;SDS011;52783;50.502;8.190;2023-01-25T10:47:13;52.17;;;8.85;;
66012;SDS011;52783;50.502;8.190;2023-01-25T10:49:57;29.85;;;9.82;;
66012;SDS011;52783;50.502;8.190;2023-01-25T10:52:26;66.43;;;9.07;;
66012;SDS011;52783;50.502;8.190;2023-01-25T10:55:12;61.20;;;9.02;;
66012;SDS011;52783;50.502;8.190;2023-01-25T10:57:47;34.60;;;12.10;;
66012;SDS011;52783;50.502;8.190;2023-01-25T11:00:22;74.00;;;9.57;;
66012;SDS011;52783;50.502;8.190;2023-01-25T11:02:54;36.22;;;9.05;;
66012;SDS011;52783;50.502;8.190;2023-01-25T11:07:54;22.92;;;8.65;;
66012;SDS011;52783;50.502;8.190;2023-01-25T11:10:27;58.03;;;10.50;;
66012;SDS011;52783;50.502;8.190;2023-01-25T11:18:29;44.15;;;8.98;;
66012;SDS011;52783;50.502;8.190;2023-01-25T11:21:13;18.45;;;8.23;;
66012;SDS011;52783;50.502;8.190;2023-01-25T11:26:33;56.40;;;10.15;;
66012;SDS011;52783;50.502;8.190;2023-01-25T11:29:19;49.92;;;10.13;;
66012;SDS011;52783;50.502;8.190;2023-01-25T11:31:48;32.25;;;9.77;;
66012;SDS011;52783;50.502;8.190;2023-01-25T11:34:18;27.87;;;9.67;;
66012;SDS011;52783;50.502;8.190;2023-01-25T11:39:36;27.92;;;9.60;;
66012;SDS011;52783;50.502;8.190;2023-01-25T11:42:18;37.60;;;9.00;;
66012;SDS011;52783;50.502;8.190;2023-01-25T11:50:37;23.25;;;9.48;;
66012;SDS011;52783;50.502;8.190;2023-01-25T11:55:56;28.92;;;8.70;;
66012;SDS011;52783;50.502;8.190;2023-01-25T12:07:14;38.60;;;9.15;;
66012;SDS011;52783;50.502;8.190;2023-01-25T12:12:43;24.60;;;10.23;;
66012;SDS011;52783;50.502;8.190;2023-01-25T12:33:21;44.38;;;8.02;;
66012;SDS011;52783;50.502;8.190;2023-01-25T12:36:10;40.35;;;7.00;;
66012;SDS011;52783;50.502;8.190;2023-01-25T12:38:53;29.27;;;8.38;;
66012;SDS011;52783;50.502;8.190;2023-01-25T12:41:33;18.40;;;8.63;;
66012;SDS011;52783;50.502;8.190;2023-01-25T12:44:20;37.28;;;7.78;;
66012;SDS011;52783;50.502;8.190;2023-01-25T12:52:35;23.88;;;10.00;;
66012;SDS011;52783;50.502;8.190;2023-01-25T12:55:06;28.60;;;9.63;;
66012;SDS011;52783;50.502;8.190;2023-01-25T13:11:44;21.15;;;10.88;;
66012;SDS011;52783;50.502;8.190;2023-01-25T13:22:02;22.02;;;10.25;;
66012;SDS011;52783;50.502;8.190;2023-01-25T13:24:29;29.67;;;6.18;;
66012;SDS011;52783;50.502;8.190;2023-01-25T13:27:01;16.73;;;7.22;;
66012;SDS011;52783;50.502;8.190;2023-01-25T13:32:00;19.13;;;7.87;;
66012;SDS011;52783;50.502;8.190;2023-01-25T13:42:25;18.02;;;7.93;;
66012;SDS011;52783;50.502;8.190;2023-01-25T13:44:58;18.65;;;7.00;;
66012;SDS011;52783;50.502;8.190;2023-01-25T13:47:42;21.58;;;8.40;;
66012;SDS011;52783;50.502;8.190;2023-01-25T13:55:36;23.25;;;6.45;;
66012;SDS011;52783;50.502;8.190;2023-01-25T13:58:08;18.35;;;7.20;;
66012;SDS011;52783;50.502;8.190;2023-01-25T14:00:34;21.13;;;7.03;;
66012;SDS011;52783;50.502;8.190;2023-01-25T14:03:03;16.13;;;6.93;;
66012;SDS011;52783;50.502;8.190;2023-01-25T14:05:30;17.60;;;7.90;;
66012;SDS011;52783;50.502;8.190;2023-01-25T14:07:56;19.40;;;7.53;;
66012;SDS011;52783;50.502;8.190;2023-01-25T14:10:22;30.90;;;7.60;;
66012;SDS011;52783;50.502;8.190;2023-01-25T14:12:50;21.35;;;7.20;;
66012;SDS011;52783;50.502;8.190;2023-01-25T14:15:20;34.22;;;7.60;;
66012;SDS011;52783;50.502;8.190;2023-01-25T14:18:02;33.72;;;9.02;;
66012;SDS011;52783;50.502;8.190;2023-01-25T14:20:43;23.23;;;8.23;;
66012;SDS011;52783;50.502;8.190;2023-01-25T14:23:26;32.35;;;7.75;;
66012;SDS011;52783;50.502;8.190;2023-01-25T14:25:54;36.35;;;8.43;;
66012;SDS011;52783;50.502;8.190;2023-01-25T14:28:23;27.20;;;7.03;;
66012;SDS011;52783;50.502;8.190;2023-01-25T14:30:50;45.40;;;7.85;;
66012;SDS011;52783;50.502;8.190;2023-01-25T14:35:46;31.60;;;7.80;;
66012;SDS011;52783;50.502;8.190;2023-01-25T14:38:55;37.20;;;7.07;;
66012;SDS011;52783;50.502;8.190;2023-01-25T14:43:35;17.30;;;7.70;;
66012;SDS011;52783;50.502;8.190;2023-01-25T14:46:16;12.75;;;5.72;;
66012;SDS011;52783;50.502;8.190;2023-01-25T14:48:48;29.45;;;8.30;;
66012;SDS011;52783;50.502;8.190;2023-01-25T14:51:23;17.05;;;8.05;;
66012;SDS011;52783;50.502;8.190;2023-01-25T14:53:56;19.55;;;8.25;;
66012;SDS011;52783;50.502;8.190;2023-01-25T14:56:40;16.13;;;6.90;;
66012;SDS011;52783;50.502;8.190;2023-01-25T15:01:52;23.23;;;9.32;;
66012;SDS011;52783;50.502;8.190;2023-01-25T15:04:19;23.88;;;9.02;;
66012;SDS011;52783;50.502;8.190;2023-01-25T15:06:52;25.95;;;8.40;;
66012;SDS011;52783;50.502;8.190;2023-01-25T15:09:35;33.90;;;9.57;;
66012;SDS011;52783;50.502;8.190;2023-01-25T15:14:51;55.42;;;9.07;;
66012;SDS011;52783;50.502;8.190;2023-01-25T15:17:37;30.83;;;7.20;;
66012;SDS011;52783;50.502;8.190;2023-01-25T15:20:04;69.55;;;7.57;;
66012;SDS011;52783;50.502;8.190;2023-01-25T15:22:30;53.22;;;7.82;;
66012;SDS011;52783;50.502;8.190;2023-01-25T15:24:56;79.72;;;8.95;;
66012;SDS011;52783;50.502;8.190;2023-01-25T15:27:22;49.75;;;7.70;;
66012;SDS011;52783;50.502;8.190;2023-01-25T15:29:47;120.05;;;9.05;;
66012;SDS011;52783;50.502;8.190;2023-01-25T15:32:16;56.55;;;7.97;;
66012;SDS011;52783;50.502;8.190;2023-01-25T15:34:45;125.90;;;8.85;;
66012;SDS011;52783;50.502;8.190;2023-01-25T15:37:10;60.42;;;8.60;;
66012;SDS011;52783;50.502;8.190;2023-01-25T15:39:36;69.22;;;7.60;;
66012;SDS011;52783;50.502;8.190;2023-01-25T15:42:02;35.42;;;7.35;;
66012;SDS011;52783;50.502;8.190;2023-01-25T15:44:28;52.72;;;7.10;;
66012;SDS011;52783;50.502;8.190;2023-01-25T15:46:54;120.82;;;11.20;;
66012;SDS011;52783;50.502;8.190;2023-01-25T15:49:22;66.45;;;8.68;;
66012;SDS011;52783;50.502;8.190;2023-01-25T15:51:50;70.10;;;10.45;;
66012;SDS011;52783;50.502;8.190;2023-01-25T15:54:16;48.45;;;12.43;;
66012;SDS011;52783;50.502;8.190;2023-01-25T15:56:41;39.45;;;10.15;;
66012;SDS011;52783;50.502;8.190;2023-01-25T15:59:14;42.15;;;9.88;;
66012;SDS011;52783;50.502;8.190;2023-01-25T16:01:41;18.40;;;7.30;;
66012;SDS011;52783;50.502;8.190;2023-01-25T16:04:08;68.65;;;7.40;;
66012;SDS011;52783;50.502;8.190;2023-01-25T16:09:19;120.25;;;8.05;;
66012;SDS011;52783;50.502;8.190;2023-01-25T16:11:50;133.25;;;8.82;;
66012;SDS011;52783;50.502;8.190;2023-01-25T16:14:20;80.30;;;7.38;;
66012;SDS011;52783;50.502;8.190;2023-01-25T16:16:48;90.95;;;11.90;;
66012;SDS011;52783;50.502;8.190;2023-01-25T16:19:18;67.63;;;8.90;;
66012;SDS011;52783;50.502;8.190;2023-01-25T16:21:46;177.18;;;10.07;;
66012;SDS011;52783;50.502;8.190;2023-01-25T16:24:11;174.48;;;9.32;;
66012;SDS011;52783;50.502;8.190;2023-01-25T16:26:38;70.45;;;7.95;;
66012;SDS011;52783;50.502;8.190;2023-01-25T16:29:08;102.20;;;7.53;;
66012;SDS011;52783;50.502;8.190;2023-01-25T16:31:35;59.65;;;7.78;;
66012;SDS011;52783;50.502;8.190;2023-01-25T16:34:01;49.63;;;7.90;;
66012;SDS011;52783;50.502;8.190;2023-01-25T16:36:26;24.40;;;9.15;;
66012;SDS011;52783;50.502;8.190;2023-01-25T16:38:53;122.55;;;17.75;;
66012;SDS011;52783;50.502;8.190;2023-01-25T16:41:19;57.08;;;12.70;;